createdAt,value
2019-01-10T00:02:08.236Z,100412.78
2019-01-10T00:04:38.857Z,100411.86
2019-01-10T00:07:09.412Z,100416.25
2019-01-10T00:09:39.869Z,100414.53
2019-01-10T00:12:10.311Z,100421.05
2019-01-10T00:14:40.778Z,100423.55
2019-01-10T00:17:11.171Z,100430.17
2019-01-10T00:19:41.561Z,100422.50
2019-01-10T00:22:11.936Z,100429.52
2019-01-10T00:24:42.323Z,100426.67
2019-01-10T00:27:13.426Z,100429.28
2019-01-10T00:29:45.702Z,100433.63
2019-01-10T00:32:17.439Z,100436.17
2019-01-10T00:34:48.211Z,100434.02
2019-01-10T00:37:19.256Z,100439.19
2019-01-10T00:39:50.564Z,100440.94
2019-01-10T00:42:28.944Z,100438.33
2019-01-10T00:44:59.876Z,100426.09
2019-01-10T00:47:30.821Z,100446.59
2019-01-10T00:50:01.828Z,100452.22
2019-01-10T00:52:36.424Z,100461.72
2019-01-10T00:55:12.421Z,100464.83
2019-01-10T00:57:44.212Z,100466.55
2019-01-10T01:00:21.376Z,100472.52
2019-01-10T01:02:51.834Z,100486.53
2019-01-10T01:05:22.699Z,100485.67
2019-01-10T01:07:55.148Z,100476.97
2019-01-10T01:10:28.041Z,100499.43
2019-01-10T01:13:04.048Z,100489.45
2019-01-10T01:15:37.080Z,100496.89
2019-01-10T01:18:07.608Z,100502.11
2019-01-10T01:20:37.939Z,100507.44
2019-01-10T01:23:08.208Z,100514.34
2019-01-10T01:25:38.919Z,100518.12
2019-01-10T01:28:09.260Z,100518.66
2019-01-10T01:30:39.588Z,100526.73
2019-01-10T01:33:10.480Z,100533.38
2019-01-10T01:35:40.789Z,100527.66
2019-01-10T01:38:11.146Z,100542.78
2019-01-10T01:40:41.968Z,100530.26
2019-01-10T01:43:12.892Z,100539.70
2019-01-10T01:45:48.126Z,100542.88
2019-01-10T01:48:18.556Z,100555.91
2019-01-10T01:50:49.093Z,100551.98
2019-01-10T01:53:19.467Z,100557.55
2019-01-10T01:55:49.890Z,100559.81
2019-01-10T01:58:20.286Z,100565.87
2019-01-10T02:00:51.206Z,100563.69
2019-01-10T02:03:21.708Z,100576.15
2019-01-10T02:05:52.194Z,100564.52
2019-01-10T02:08:22.536Z,100581.95
2019-01-10T02:10:53.108Z,100578.41
2019-01-10T02:13:23.454Z,100582.87
2019-01-10T02:15:54.311Z,100583.39
2019-01-10T02:18:24.680Z,100592.35
2019-01-10T02:20:55.126Z,100598.58
2019-01-10T02:23:25.729Z,100593.08
2019-01-10T02:25:56.099Z,100599.53
2019-01-10T02:28:26.512Z,100602.25
2019-01-10T02:30:56.842Z,100605.48
2019-01-10T02:33:27.307Z,100610.13
2019-01-10T02:35:57.669Z,100616.59
2019-01-10T02:38:28.118Z,100623.67
2019-01-10T02:40:58.395Z,100613.25
2019-01-10T02:43:28.791Z,100622.48
2019-01-10T02:45:59.181Z,100626.40
2019-01-10T02:48:29.837Z,100620.59
2019-01-10T02:51:02.093Z,100625.55
2019-01-10T02:53:32.373Z,100628.73
2019-01-10T02:56:03.126Z,100633.05
2019-01-10T02:58:34.561Z,100635.24
2019-01-10T03:01:05.637Z,100648.88
2019-01-10T03:03:35.953Z,100652.58
2019-01-10T03:06:06.353Z,100642.60
2019-01-10T03:08:37.304Z,100641.36
2019-01-10T03:11:07.664Z,100641.00
2019-01-10T03:13:38.341Z,100650.36
2019-01-10T03:16:09.491Z,100649.59
2019-01-10T03:18:40.226Z,100651.66
2019-01-10T03:21:10.709Z,100652.41
2019-01-10T03:23:41.059Z,100650.36
2019-01-10T03:26:11.988Z,100659.09
2019-01-10T03:28:42.735Z,100658.15
2019-01-10T03:31:13.413Z,100661.25
2019-01-10T03:33:44.273Z,100661.75
2019-01-10T03:36:14.806Z,100662.05
2019-01-10T03:38:45.207Z,100659.64
2019-01-10T03:41:16.097Z,100657.42
2019-01-10T03:43:47.712Z,100667.45
2019-01-10T03:46:18.167Z,100664.34
2019-01-10T03:48:48.547Z,100660.94
2019-01-10T03:51:18.878Z,100664.05
2019-01-10T03:53:49.254Z,100672.27
2019-01-10T03:56:19.567Z,100666.77
2019-01-10T03:58:50.262Z,100667.25
2019-01-10T04:01:20.601Z,100661.17
2019-01-10T04:03:51.337Z,100654.66
2019-01-10T04:06:21.746Z,100670.83
2019-01-10T04:08:52.400Z,100676.23
2019-01-10T04:11:22.917Z,100678.11
2019-01-10T04:13:57.533Z,100678.16
2019-01-10T04:16:26.689Z,100687.75
2019-01-10T04:19:17.287Z,100682.98
2019-01-10T04:21:47.988Z,100686.58
2019-01-10T04:24:18.852Z,100700.01
2019-01-10T04:26:49.425Z,100699.59
2019-01-10T04:29:19.842Z,100700.19
2019-01-10T04:31:50.228Z,100708.20
2019-01-10T04:34:20.887Z,100710.86
2019-01-10T04:36:51.286Z,100704.84
2019-01-10T04:39:21.724Z,100711.09
2019-01-10T04:41:52.204Z,100706.52
2019-01-10T04:44:22.543Z,100713.20
2019-01-10T04:46:53.507Z,100719.81
2019-01-10T04:49:24.362Z,100708.50
2019-01-10T04:51:54.696Z,100714.50
2019-01-10T04:54:25.460Z,100720.20
2019-01-10T04:56:55.748Z,100724.05
2019-01-10T04:59:26.121Z,100725.83
2019-01-10T05:01:56.408Z,100727.95
2019-01-10T05:04:26.911Z,100727.56
2019-01-10T05:06:57.185Z,100731.47
2019-01-10T05:09:27.498Z,100729.67
2019-01-10T05:11:57.899Z,100741.49
2019-01-10T05:14:28.285Z,100732.88
2019-01-10T05:16:58.627Z,100737.61
2019-01-10T05:19:28.996Z,100734.62
2019-01-10T05:21:59.325Z,100740.81
2019-01-10T05:24:29.708Z,100741.62
2019-01-10T05:27:00.002Z,100748.62
2019-01-10T05:29:31.234Z,100746.44
2019-01-10T05:32:02.638Z,100751.70
2019-01-10T05:34:33.105Z,100757.77
2019-01-10T05:37:06.423Z,100764.64
2019-01-10T05:39:36.732Z,100761.23
2019-01-10T05:42:08.179Z,100757.38
2019-01-10T05:44:38.511Z,100763.41
2019-01-10T05:47:08.925Z,100766.07
2019-01-10T05:49:39.303Z,100769.58
2019-01-10T05:52:12.554Z,100775.23
2019-01-10T05:54:43.042Z,100785.34
2019-01-10T05:57:13.393Z,100785.02
2019-01-10T05:59:43.892Z,100789.31
2019-01-10T06:02:14.754Z,100785.20
2019-01-10T06:04:45.091Z,100795.21
2019-01-10T06:07:15.470Z,100790.11
2019-01-10T06:09:45.921Z,100795.70
2019-01-10T06:12:16.764Z,100809.09
2019-01-10T06:14:47.255Z,100813.52
2019-01-10T06:17:17.619Z,100818.72
2019-01-10T06:19:48.144Z,100822.95
2019-01-10T06:22:18.441Z,100826.14
2019-01-10T06:24:48.841Z,100824.31
2019-01-10T06:27:19.241Z,100827.01
2019-01-10T06:29:49.540Z,100834.32
2019-01-10T06:32:19.995Z,100838.61
2019-01-10T06:34:50.440Z,100846.03
2019-01-10T06:37:21.234Z,100840.23
2019-01-10T06:39:51.563Z,100853.78
2019-01-10T06:42:22.080Z,100844.20
2019-01-10T06:44:53.293Z,100845.73
2019-01-10T06:47:23.737Z,100860.09
2019-01-10T06:49:54.044Z,100866.20
2019-01-10T06:52:52.507Z,100864.75
2019-01-10T06:55:22.910Z,100874.00
2019-01-10T06:57:53.294Z,100881.04
2019-01-10T07:00:25.360Z,100876.77
2019-01-10T07:03:04.875Z,100881.86
2019-01-10T07:05:35.161Z,100882.02
2019-01-10T07:08:05.597Z,100888.61
2019-01-10T07:10:36.130Z,100891.20
2019-01-10T07:13:06.726Z,100902.33
2019-01-10T07:15:39.171Z,100900.64
2019-01-10T07:18:09.234Z,100910.53
2019-01-10T07:20:41.068Z,100910.42
2019-01-10T07:23:11.562Z,100912.06
2019-01-10T07:25:42.021Z,100921.98
2019-01-10T07:28:26.108Z,100924.58
2019-01-10T07:31:00.667Z,100925.81
2019-01-10T07:33:32.284Z,100929.78
2019-01-10T07:36:04.603Z,100927.31
2019-01-10T07:38:34.954Z,100921.59
2019-01-10T07:41:05.270Z,100932.18
2019-01-10T07:43:39.366Z,100940.31
2019-01-10T07:46:10.739Z,100940.66
2019-01-10T07:48:41.867Z,100944.09
2019-01-10T07:51:21.394Z,100945.81
2019-01-10T07:53:52.487Z,100951.59
2019-01-10T07:56:23.989Z,100951.64
2019-01-10T07:58:55.870Z,100955.94
2019-01-10T08:01:26.577Z,100954.09
2019-01-10T08:03:57.059Z,100964.41
2019-01-10T08:06:28.082Z,100955.73
2019-01-10T08:08:59.953Z,100971.78
2019-01-10T08:11:30.448Z,100967.88
2019-01-10T08:14:01.019Z,100972.80
2019-01-10T08:16:31.803Z,100979.54
2019-01-10T08:19:22.641Z,100977.31
2019-01-10T08:21:53.080Z,100993.03
2019-01-10T08:24:24.666Z,100988.89
2019-01-10T08:26:55.177Z,100997.90
2019-01-10T08:29:26.057Z,101001.17
2019-01-10T08:31:58.773Z,101003.00
2019-01-10T08:34:29.143Z,101003.77
2019-01-10T08:36:59.595Z,101012.39
2019-01-10T08:39:30.567Z,101001.89
2019-01-10T08:42:01.163Z,100998.80
2019-01-10T08:44:34.210Z,101005.84
2019-01-10T08:47:06.230Z,101004.49
2019-01-10T08:49:36.651Z,101011.58
2019-01-10T08:52:07.141Z,101014.17
2019-01-10T08:54:37.450Z,101015.63
2019-01-10T08:57:07.844Z,101014.56
2019-01-10T08:59:38.788Z,101012.11
2019-01-10T09:02:09.168Z,101018.95
2019-01-10T09:04:39.448Z,101020.25
2019-01-10T09:07:09.837Z,101026.27
2019-01-10T09:09:40.226Z,101024.69
2019-01-10T09:12:10.594Z,101033.27
2019-01-10T09:14:41.099Z,101034.66
2019-01-10T09:17:11.531Z,101035.86
2019-01-10T09:19:41.897Z,101038.47
2019-01-10T09:22:12.595Z,101045.88
2019-01-10T09:24:44.168Z,101050.11
2019-01-10T09:27:14.664Z,101046.21
2019-01-10T09:29:44.999Z,101052.58
2019-01-10T09:32:15.986Z,101051.38
2019-01-10T09:34:46.338Z,101060.91
2019-01-10T09:37:16.646Z,101058.94
2019-01-10T09:39:47.630Z,101061.07
2019-01-10T09:42:17.929Z,101060.83
2019-01-10T09:44:48.397Z,101066.36
2019-01-10T09:47:18.708Z,101077.55
2019-01-10T09:49:49.809Z,101075.27
2019-01-10T09:52:20.498Z,101079.09
2019-01-10T09:54:50.815Z,101082.38
2019-01-10T09:57:21.828Z,101082.59
2019-01-10T09:59:52.366Z,101087.02
2019-01-10T10:02:22.684Z,101091.66
2019-01-10T10:04:53.061Z,101091.66
2019-01-10T10:07:24.098Z,101092.22
2019-01-10T10:09:55.093Z,101092.09
2019-01-10T10:12:25.506Z,101097.88
2019-01-10T10:14:57.034Z,101096.29
2019-01-10T10:17:27.410Z,101095.38
2019-01-10T10:20:00.544Z,101099.80
2019-01-10T10:22:30.880Z,101095.72
2019-01-10T10:25:01.292Z,101100.15
2019-01-10T10:27:31.960Z,101084.73
2019-01-10T10:30:02.728Z,101096.14
2019-01-10T10:32:33.624Z,101093.55
2019-01-10T10:35:05.320Z,101095.72
2019-01-10T10:37:36.036Z,101099.03
2019-01-10T10:40:08.465Z,101096.48
2019-01-10T10:42:38.859Z,101092.72
2019-01-10T10:45:10.205Z,101096.20
2019-01-10T10:47:41.120Z,101097.50
2019-01-10T10:50:23.432Z,101103.77
2019-01-10T10:52:53.756Z,101102.31
2019-01-10T10:55:24.040Z,101100.69
2019-01-10T10:57:54.512Z,101099.15
2019-01-10T11:00:27.347Z,101098.97
2019-01-10T11:02:58.021Z,101096.70
2019-01-10T11:05:28.671Z,101084.78
2019-01-10T11:07:59.006Z,101095.20
2019-01-10T11:10:30.983Z,101095.53
2019-01-10T11:13:01.848Z,101095.97
2019-01-10T11:15:32.172Z,101096.94
2019-01-10T11:18:02.621Z,101092.06
2019-01-10T11:20:33.050Z,101096.73
2019-01-10T11:23:10.512Z,101103.25
2019-01-10T11:25:35.720Z,101096.78
2019-01-10T11:28:06.218Z,101098.61
2019-01-10T11:30:36.610Z,101094.19
2019-01-10T11:33:06.896Z,101094.09
2019-01-10T11:35:37.696Z,101091.58
2019-01-10T11:38:08.180Z,101085.31
2019-01-10T11:40:39.136Z,101076.06
2019-01-10T11:43:09.661Z,101079.58
2019-01-10T11:45:40.098Z,101077.68
2019-01-10T11:48:10.841Z,101082.59
2019-01-10T11:50:41.299Z,101072.01
2019-01-10T11:53:11.761Z,101078.27
2019-01-10T11:55:42.138Z,101067.84
2019-01-10T11:58:12.558Z,101076.34
2019-01-10T12:00:42.886Z,101076.97
2019-01-10T12:03:13.585Z,101073.69
2019-01-10T12:05:47.838Z,101075.77
2019-01-10T12:08:18.673Z,101076.16
2019-01-10T12:10:49.290Z,101081.36
2019-01-10T12:13:19.650Z,101078.05
2019-01-10T12:15:50.002Z,101072.59
2019-01-10T12:18:20.442Z,101079.76
2019-01-10T12:20:51.995Z,101080.33
2019-01-10T12:23:24.243Z,101073.68
2019-01-10T12:25:54.585Z,101082.59
2019-01-10T12:28:26.641Z,101071.08
2019-01-10T12:30:57.084Z,101078.01
2019-01-10T12:33:27.460Z,101076.97
2019-01-10T12:35:57.755Z,101079.05
2019-01-10T12:38:28.213Z,101075.86
2019-01-10T12:40:58.610Z,101081.78
2019-01-10T12:43:30.258Z,101075.81
2019-01-10T12:46:01.194Z,101081.64
2019-01-10T12:48:34.707Z,101076.69
2019-01-10T12:51:05.476Z,101079.84
2019-01-10T12:53:35.775Z,101083.75
2019-01-10T12:56:06.441Z,101077.41
2019-01-10T12:58:36.751Z,101075.88
2019-01-10T13:01:08.043Z,101079.42
2019-01-10T13:03:38.365Z,101083.92
2019-01-10T13:06:08.824Z,101081.06
2019-01-10T13:08:39.203Z,101091.77
2019-01-10T13:11:11.168Z,101089.00
2019-01-10T13:13:44.576Z,101086.75
2019-01-10T13:16:15.283Z,101085.42
2019-01-10T13:18:45.715Z,101089.72
2019-01-10T13:21:16.064Z,101082.66
2019-01-10T13:23:46.495Z,101092.74
2019-01-10T13:26:23.743Z,101092.30
2019-01-10T13:28:54.149Z,101096.34
2019-01-10T13:31:25.532Z,101094.00
2019-01-10T13:33:56.012Z,101099.73
2019-01-10T13:36:26.828Z,101100.48
2019-01-10T13:38:57.184Z,101099.56
2019-01-10T13:41:27.611Z,101102.22
2019-01-10T13:43:57.945Z,101098.98
2019-01-10T13:46:28.642Z,101103.51
2019-01-10T13:48:59.520Z,101100.48
2019-01-10T13:51:29.866Z,101096.61
2019-01-10T13:54:00.292Z,101094.26
2019-01-10T13:56:31.101Z,101098.66
2019-01-10T13:59:02.070Z,101097.67
2019-01-10T14:01:32.388Z,101108.20
2019-01-10T14:04:02.772Z,101096.83
2019-01-10T14:06:33.631Z,101101.70
2019-01-10T14:09:05.055Z,101106.91
2019-01-10T14:11:35.491Z,101109.13
2019-01-10T14:14:05.958Z,101106.98
2019-01-10T14:16:36.529Z,101111.01
2019-01-10T14:19:07.211Z,101115.34
2019-01-10T14:21:37.979Z,101112.27
2019-01-10T14:24:08.457Z,101119.69
2019-01-10T14:26:38.791Z,101114.34
2019-01-10T14:29:09.311Z,101112.22
2019-01-10T14:31:39.676Z,101120.23
2019-01-10T14:34:14.192Z,101122.06
2019-01-10T14:36:42.845Z,101116.75
2019-01-10T14:39:13.672Z,101121.91
2019-01-10T14:41:44.433Z,101127.45
2019-01-10T14:44:17.346Z,101124.13
2019-01-10T14:46:47.739Z,101130.44
2019-01-10T14:49:18.128Z,101120.30
2019-01-10T14:51:49.143Z,101131.02
2019-01-10T14:54:20.015Z,101136.55
2019-01-10T14:56:50.469Z,101139.98
2019-01-10T14:59:20.750Z,101140.38
2019-01-10T15:01:51.247Z,101144.70
2019-01-10T15:04:22.325Z,101140.21
2019-01-10T15:06:53.147Z,101146.46
2019-01-10T15:09:23.925Z,101150.37
2019-01-10T15:11:54.282Z,101149.16
2019-01-10T15:14:24.695Z,101147.38
2019-01-10T15:16:55.101Z,101150.94
2019-01-10T15:19:25.747Z,101156.48
2019-01-10T15:21:56.148Z,101154.70
2019-01-10T15:24:26.508Z,101152.58
2019-01-10T15:26:57.235Z,101158.73
2019-01-10T15:29:27.666Z,101153.67
2019-01-10T15:31:58.185Z,101153.92
2019-01-10T15:34:28.604Z,101157.34
2019-01-10T15:36:59.052Z,101156.19
2019-01-10T15:39:29.866Z,101154.02
2019-01-10T15:42:01.683Z,101154.58
2019-01-10T15:44:32.453Z,101155.00
2019-01-10T15:47:02.749Z,101157.83
2019-01-10T15:49:33.684Z,101163.03
2019-01-10T15:52:04.688Z,101156.27
2019-01-10T15:54:35.017Z,101163.33
2019-01-10T15:57:05.865Z,101164.11
2019-01-10T16:00:05.373Z,101169.00
2019-01-10T16:02:36.283Z,101176.89
2019-01-10T16:05:07.102Z,101170.62
2019-01-10T16:07:37.491Z,101177.68
2019-01-10T16:10:09.075Z,101182.18
2019-01-10T16:12:39.485Z,101183.44
2019-01-10T16:15:11.968Z,101184.73
2019-01-10T16:17:42.375Z,101186.34
2019-01-10T16:20:17.271Z,101184.92
2019-01-10T16:22:56.218Z,101188.09
2019-01-10T16:25:26.684Z,101192.50
2019-01-10T16:27:57.017Z,101189.81
2019-01-10T16:30:32.337Z,101190.69
2019-01-10T16:33:02.655Z,101193.28
2019-01-10T16:35:32.949Z,101185.75
2019-01-10T16:38:03.933Z,101192.20
2019-01-10T16:40:34.286Z,101190.64
2019-01-10T16:43:05.212Z,101186.27
2019-01-10T16:45:35.864Z,101187.36
2019-01-10T16:48:06.606Z,101194.85
2019-01-10T16:50:37.092Z,101190.39
2019-01-10T16:53:08.071Z,101192.30
2019-01-10T16:55:38.499Z,101195.37
2019-01-10T16:58:08.822Z,101185.68
2019-01-10T17:00:39.281Z,101187.02
2019-01-10T17:03:09.629Z,101192.41
2019-01-10T17:05:40.019Z,101194.23
2019-01-10T17:08:10.471Z,101191.70
2019-01-10T17:10:40.841Z,101194.27
2019-01-10T17:13:11.364Z,101196.08
2019-01-10T17:15:41.777Z,101191.59
2019-01-10T17:18:12.170Z,101196.23
2019-01-10T17:20:42.552Z,101194.89
2019-01-10T17:23:12.916Z,101204.98
2019-01-10T17:25:43.531Z,101200.30
2019-01-10T17:28:14.006Z,101201.91
2019-01-10T17:30:44.324Z,101203.13
2019-01-10T17:33:14.690Z,101196.71
2019-01-10T17:35:45.598Z,101199.19
2019-01-10T17:38:16.507Z,101206.16
2019-01-10T17:40:46.910Z,101216.92
2019-01-10T17:43:17.350Z,101216.14
2019-01-10T17:45:47.808Z,101205.95
2019-01-10T17:48:18.132Z,101214.98
2019-01-10T17:50:48.555Z,101220.43
2019-01-10T17:53:18.955Z,101218.96
2019-01-10T17:55:49.315Z,101215.59
2019-01-10T17:58:20.304Z,101204.80
2019-01-10T18:00:50.636Z,101204.84
2019-01-10T18:03:21.090Z,101208.66
2019-01-10T18:05:51.679Z,101209.61
2019-01-10T18:08:22.052Z,101213.38
2019-01-10T18:10:52.845Z,101210.13
2019-01-10T18:13:23.192Z,101201.11
2019-01-10T18:15:53.583Z,101214.06
2019-01-10T18:18:24.002Z,101208.66
2019-01-10T18:20:54.395Z,101208.05
2019-01-10T18:23:25.130Z,101202.98
2019-01-10T18:25:56.189Z,101205.70
2019-01-10T18:28:26.523Z,101209.96
2019-01-10T18:30:56.970Z,101206.48
2019-01-10T18:33:45.338Z,101208.17
2019-01-10T18:36:16.347Z,101212.00
2019-01-10T18:38:46.796Z,101212.82
2019-01-10T18:41:19.411Z,101212.13
2019-01-10T18:43:49.885Z,101209.22
2019-01-10T18:46:20.287Z,101217.66
2019-01-10T18:48:51.176Z,101214.63
2019-01-10T18:51:21.535Z,101224.91
2019-01-10T18:53:53.834Z,101229.64
2019-01-10T18:56:24.162Z,101233.23
2019-01-10T18:58:54.597Z,101233.37
2019-01-10T19:01:25.218Z,101236.53
2019-01-10T19:03:55.662Z,101235.44
2019-01-10T19:06:26.081Z,101230.98
2019-01-10T19:08:56.513Z,101231.41
2019-01-10T19:11:27.095Z,101222.88
2019-01-10T19:13:57.417Z,101229.30
2019-01-10T19:16:27.747Z,101235.89
2019-01-10T19:18:59.795Z,101226.58
2019-01-10T19:21:30.563Z,101229.26
2019-01-10T19:24:01.147Z,101235.20
2019-01-10T19:26:31.527Z,101230.56
2019-01-10T19:29:01.890Z,101227.48
2019-01-10T19:31:32.382Z,101238.89
2019-01-10T19:34:03.065Z,101240.97
2019-01-10T19:36:33.571Z,101242.75
2019-01-10T19:39:04.290Z,101241.84
2019-01-10T19:41:34.711Z,101247.08
2019-01-10T19:44:05.273Z,101246.26
2019-01-10T19:46:35.863Z,101251.38
2019-01-10T19:49:07.825Z,101246.92
2019-01-10T19:51:40.269Z,101245.05
2019-01-10T19:54:11.027Z,101241.31
2019-01-10T19:56:41.570Z,101242.63
2019-01-10T19:59:12.509Z,101233.34
2019-01-10T20:01:42.995Z,101239.77
2019-01-10T20:04:13.437Z,101236.38
2019-01-10T20:06:43.749Z,101235.30
2019-01-10T20:09:14.188Z,101233.51
2019-01-10T20:11:46.812Z,101238.45
2019-01-10T20:14:17.381Z,101244.05
2019-01-10T20:16:48.314Z,101238.72
2019-01-10T20:19:18.962Z,101238.50
2019-01-10T20:21:49.511Z,101243.66
2019-01-10T20:24:22.216Z,101238.41
2019-01-10T20:26:53.002Z,101240.31
2019-01-10T20:29:23.741Z,101237.67
2019-01-10T20:31:54.150Z,101240.70
2019-01-10T20:34:24.554Z,101235.50
2019-01-10T20:36:54.927Z,101239.96
2019-01-10T20:39:27.886Z,101246.30
2019-01-10T20:42:01.834Z,101246.03
2019-01-10T20:44:30.479Z,101240.44
2019-01-10T20:47:00.932Z,101238.54
2019-01-10T20:49:32.404Z,101242.00
2019-01-10T20:52:03.403Z,101237.80
2019-01-10T20:54:35.923Z,101236.93
2019-01-10T20:57:08.176Z,101236.88
2019-01-10T20:59:38.584Z,101237.17
2019-01-10T21:02:08.923Z,101240.17
2019-01-10T21:04:39.279Z,101237.09
2019-01-10T21:07:21.000Z,101235.23
2019-01-10T21:09:51.791Z,101235.11
2019-01-10T21:12:22.324Z,101235.63
2019-01-10T21:14:54.345Z,101235.46
2019-01-10T21:17:24.872Z,101237.55
2019-01-10T21:19:55.303Z,101237.20
2019-01-10T21:22:30.826Z,101241.70
2019-01-10T21:25:03.333Z,101242.80
2019-01-10T21:27:33.915Z,101239.41
2019-01-10T21:30:04.500Z,101230.89
2019-01-10T21:32:40.711Z,101225.65
2019-01-10T21:35:08.081Z,101233.37
2019-01-10T21:37:38.592Z,101237.88
2019-01-10T21:40:11.673Z,101239.06
2019-01-10T21:42:48.418Z,101228.44
2019-01-10T21:45:25.322Z,101241.05
2019-01-10T21:47:55.729Z,101239.41
2019-01-10T21:50:27.635Z,101232.52
2019-01-10T21:52:58.906Z,101227.66
2019-01-10T21:55:29.244Z,101225.70
2019-01-10T21:58:00.201Z,101229.44
2019-01-10T22:00:31.907Z,101227.88
2019-01-10T22:03:03.210Z,101225.36
2019-01-10T22:05:33.928Z,101223.93
2019-01-10T22:08:08.314Z,101226.09
2019-01-10T22:10:39.002Z,101217.72
2019-01-10T22:13:09.706Z,101217.85
2019-01-10T22:15:40.174Z,101230.27
2019-01-10T22:18:11.105Z,101225.05
2019-01-10T22:20:41.850Z,101228.30
2019-01-10T22:23:12.738Z,101234.91
2019-01-10T22:25:43.137Z,101227.48
2019-01-10T22:28:14.080Z,101224.88
2019-01-10T22:30:44.386Z,101224.27
2019-01-10T22:33:15.226Z,101226.09
2019-01-10T22:35:45.789Z,101225.95
2019-01-10T22:38:16.344Z,101225.44
2019-01-10T22:40:46.818Z,101228.31
2019-01-10T22:43:17.248Z,101216.42
2019-01-10T22:45:47.648Z,101219.80
2019-01-10T22:48:18.453Z,101225.22
2019-01-10T22:50:48.820Z,101220.67
2019-01-10T22:53:19.262Z,101225.48
2019-01-10T22:55:49.671Z,101231.68
2019-01-10T22:58:21.267Z,101222.80
2019-01-10T23:01:27.836Z,101219.50
2019-01-10T23:03:58.910Z,101222.58
2019-01-10T23:06:29.219Z,101217.07
2019-01-10T23:08:59.512Z,101222.45
2019-01-10T23:11:31.640Z,101220.45
2019-01-10T23:14:03.230Z,101217.16
2019-01-10T23:16:34.888Z,101210.13
2019-01-10T23:19:06.784Z,101212.59
2019-01-10T23:21:41.531Z,101212.17
2019-01-10T23:24:16.600Z,101207.48
2019-01-10T23:26:56.631Z,101202.80
2019-01-10T23:29:34.337Z,101210.42
2019-01-10T23:32:12.123Z,101201.45
2019-01-10T23:34:49.631Z,101198.23
2019-01-10T23:37:24.240Z,101202.58
2019-01-10T23:39:55.481Z,101196.25
2019-01-10T23:42:25.788Z,101190.99
2019-01-10T23:44:56.291Z,101192.86
2019-01-10T23:47:26.688Z,101186.88
2019-01-10T23:49:57.664Z,101184.75
2019-01-10T23:52:28.330Z,101182.27
2019-01-10T23:54:58.681Z,101180.83
2019-01-10T23:57:29.623Z,101178.66
